createdAt,value
2019-01-17T00:01:23.443Z,16.03
2019-01-17T00:04:11.538Z,14.40
2019-01-17T00:06:47.289Z,14.47
2019-01-17T00:09:20.639Z,11.97
2019-01-17T00:12:11.028Z,14.33
2019-01-17T00:14:47.430Z,15.57
2019-01-17T00:17:23.525Z,13.93
2019-01-17T00:20:12.261Z,14.27
2019-01-17T00:22:42.599Z,11.60
2019-01-17T00:25:32.093Z,12.97
2019-01-17T00:28:19.267Z,16.30
2019-01-17T00:31:07.959Z,21.90
2019-01-17T00:33:40.064Z,14.43
2019-01-17T00:36:10.390Z,11.80
2019-01-17T00:38:40.656Z,15.53
2019-01-17T00:41:16.860Z,15.67
2019-01-17T00:43:47.081Z,16.77
2019-01-17T00:46:18.199Z,14.13
2019-01-17T00:48:48.420Z,13.20
2019-01-17T00:51:37.137Z,17.17
2019-01-17T00:54:09.983Z,17.60
2019-01-17T00:56:56.484Z,21.03
2019-01-17T00:59:38.951Z,21.20
2019-01-17T01:02:27.292Z,17.30
2019-01-17T01:04:58.930Z,15.57
2019-01-17T01:07:38.541Z,19.00
2019-01-17T01:10:17.569Z,15.80
2019-01-17T01:12:49.309Z,17.43
2019-01-17T01:15:37.098Z,22.43
2019-01-17T01:18:11.758Z,20.97
2019-01-17T01:20:42.182Z,18.47
2019-01-17T01:23:30.616Z,14.63
2019-01-17T01:26:06.878Z,12.97
2019-01-17T01:28:37.261Z,14.27
2019-01-17T01:31:16.579Z,14.73
2019-01-17T01:34:00.418Z,12.23
2019-01-17T01:36:30.716Z,10.80
2019-01-17T01:39:01.055Z,9.57
2019-01-17T01:41:32.496Z,11.87
2019-01-17T01:44:22.381Z,14.07
2019-01-17T01:46:52.731Z,16.70
2019-01-17T01:49:35.394Z,11.17
2019-01-17T01:52:05.761Z,11.73
2019-01-17T01:54:34.357Z,13.93
2019-01-17T01:57:04.099Z,12.63
2019-01-17T01:59:32.688Z,10.87
2019-01-17T02:02:01.309Z,11.30
2019-01-17T02:04:30.047Z,17.37
2019-01-17T02:06:58.786Z,13.67
2019-01-17T02:09:27.406Z,18.13
2019-01-17T02:11:56.081Z,12.70
2019-01-17T02:14:25.014Z,10.57
2019-01-17T02:16:53.846Z,10.37
2019-01-17T02:19:22.449Z,12.00
2019-01-17T02:21:51.116Z,13.20
2019-01-17T02:24:19.593Z,14.27
2019-01-17T02:26:48.256Z,13.40
2019-01-17T02:29:16.929Z,15.80
2019-01-17T02:31:45.928Z,11.40
2019-01-17T02:34:14.478Z,7.60
2019-01-17T02:36:43.875Z,9.30
2019-01-17T02:39:12.492Z,10.57
2019-01-17T02:41:41.096Z,10.67
2019-01-17T02:44:09.718Z,8.97
2019-01-17T02:46:38.279Z,11.43
2019-01-17T02:49:06.905Z,8.97
2019-01-17T02:51:35.445Z,12.57
2019-01-17T02:54:04.295Z,10.40
2019-01-17T02:56:32.905Z,12.30
2019-01-17T02:59:01.515Z,7.77
2019-01-17T03:01:30.523Z,8.13
2019-01-17T03:03:59.126Z,10.57
2019-01-17T03:06:30.892Z,8.63
2019-01-17T03:08:59.560Z,8.67
2019-01-17T03:11:28.218Z,8.47
2019-01-17T03:13:56.878Z,6.80
2019-01-17T03:16:25.472Z,7.37
2019-01-17T03:18:54.134Z,9.67
2019-01-17T03:21:22.791Z,12.97
2019-01-17T03:23:51.456Z,14.60
2019-01-17T03:26:24.389Z,15.20
2019-01-17T03:28:52.983Z,13.83
2019-01-17T03:31:22.884Z,11.43
2019-01-17T03:33:52.009Z,8.60
2019-01-17T03:36:20.617Z,7.90
2019-01-17T03:38:49.278Z,7.27
2019-01-17T03:41:17.961Z,9.17
2019-01-17T03:43:46.614Z,9.57
2019-01-17T03:46:15.341Z,9.53
2019-01-17T03:48:44.199Z,7.27
2019-01-17T03:51:12.843Z,10.13
2019-01-17T03:53:42.943Z,10.23
2019-01-17T03:56:11.977Z,11.73
2019-01-17T03:58:40.595Z,10.03
2019-01-17T04:01:09.227Z,6.90
2019-01-17T04:03:37.783Z,7.60
2019-01-17T04:06:06.394Z,10.00
2019-01-17T04:08:35.059Z,7.47
2019-01-17T04:11:03.678Z,9.00
2019-01-17T04:13:32.224Z,6.10
2019-01-17T04:16:00.900Z,4.93
2019-01-17T04:18:35.249Z,5.17
2019-01-17T04:21:03.912Z,6.50
2019-01-17T04:23:32.584Z,5.00
2019-01-17T04:26:01.131Z,6.47
2019-01-17T04:28:29.786Z,4.33
2019-01-17T04:30:58.463Z,7.43
2019-01-17T04:33:33.164Z,4.60
2019-01-17T04:36:03.559Z,4.13
2019-01-17T04:38:32.120Z,4.83
2019-01-17T04:41:00.753Z,4.93
2019-01-17T04:43:29.410Z,4.17
2019-01-17T04:46:04.100Z,5.30
2019-01-17T04:48:32.834Z,11.87
2019-01-17T04:51:02.017Z,10.83
2019-01-17T04:53:30.589Z,10.33
2019-01-17T04:56:01.927Z,7.67
2019-01-17T04:58:30.571Z,6.77
2019-01-17T05:00:59.125Z,9.23
2019-01-17T05:03:27.787Z,7.10
2019-01-17T05:05:56.403Z,9.07
2019-01-17T05:08:25.029Z,7.53
2019-01-17T05:10:53.646Z,6.90
2019-01-17T05:13:22.198Z,10.80
2019-01-17T05:15:50.855Z,7.80
2019-01-17T05:18:19.472Z,9.17
2019-01-17T05:20:48.286Z,15.13
2019-01-17T05:23:23.282Z,18.73
2019-01-17T05:25:51.879Z,13.67
2019-01-17T05:28:26.128Z,12.10
2019-01-17T05:30:54.864Z,13.17
2019-01-17T05:33:23.571Z,7.67
2019-01-17T05:35:55.724Z,7.20
2019-01-17T05:38:24.466Z,8.70
2019-01-17T05:40:54.117Z,12.33
2019-01-17T05:43:22.755Z,24.37
2019-01-17T05:45:51.362Z,9.00
2019-01-17T05:48:20.314Z,5.70
2019-01-17T05:50:48.952Z,8.50
2019-01-17T05:53:19.151Z,8.37
2019-01-17T05:55:47.760Z,8.17
2019-01-17T05:58:16.412Z,8.67
2019-01-17T06:00:45.015Z,7.60
2019-01-17T06:03:19.887Z,10.87
2019-01-17T06:05:52.765Z,9.80
2019-01-17T06:08:24.371Z,20.43
2019-01-17T06:10:53.501Z,18.27
2019-01-17T06:13:22.194Z,14.03
2019-01-17T06:15:51.708Z,18.47
2019-01-17T06:18:20.276Z,17.47
2019-01-17T06:20:52.025Z,25.00
2019-01-17T06:23:20.669Z,14.70
2019-01-17T06:25:52.132Z,13.87
2019-01-17T06:28:20.804Z,12.80
2019-01-17T06:30:52.124Z,15.23
2019-01-17T06:33:20.802Z,14.40
2019-01-17T06:35:49.430Z,14.67
2019-01-17T06:38:22.286Z,19.70
2019-01-17T06:40:50.914Z,16.50
2019-01-17T06:43:19.563Z,19.10
2019-01-17T06:45:48.936Z,22.50
2019-01-17T06:48:17.601Z,23.83
2019-01-17T06:50:46.228Z,19.77
2019-01-17T06:53:15.328Z,22.30
2019-01-17T06:55:44.008Z,19.37
2019-01-17T06:58:12.553Z,18.40
2019-01-17T07:00:43.995Z,18.70
2019-01-17T07:03:12.620Z,22.87
2019-01-17T07:05:41.286Z,23.10
2019-01-17T07:08:09.970Z,24.80
2019-01-17T07:10:42.717Z,20.73
2019-01-17T07:13:11.376Z,22.93
2019-01-17T07:15:40.007Z,31.13
2019-01-17T07:18:08.680Z,30.80
2019-01-17T07:20:37.303Z,36.07
2019-01-17T07:23:09.772Z,27.27
2019-01-17T07:25:41.348Z,20.27
2019-01-17T07:28:13.156Z,20.87
2019-01-17T07:30:41.777Z,13.10
2019-01-17T07:33:10.406Z,13.97
2019-01-17T07:35:39.065Z,17.13
2019-01-17T07:38:07.816Z,20.07
2019-01-17T07:40:39.414Z,13.30
2019-01-17T07:43:08.041Z,14.10
2019-01-17T07:45:36.734Z,15.63
2019-01-17T07:48:08.068Z,12.57
2019-01-17T07:50:36.682Z,15.00
2019-01-17T07:53:08.360Z,15.30
2019-01-17T07:55:37.041Z,20.13
2019-01-17T07:58:10.616Z,20.40
2019-01-17T08:00:39.594Z,23.57
2019-01-17T08:03:08.638Z,17.13
2019-01-17T08:05:38.907Z,19.70
2019-01-17T08:08:07.591Z,12.13
2019-01-17T08:10:36.179Z,15.97
2019-01-17T08:13:07.023Z,15.17
2019-01-17T08:15:35.729Z,18.00
2019-01-17T08:18:37.720Z,18.60
2019-01-17T08:21:31.689Z,11.07
2019-01-17T08:24:36.523Z,9.97
2019-01-17T08:27:24.261Z,7.47
2019-01-17T08:30:28.993Z,6.37
2019-01-17T08:33:17.135Z,6.03
2019-01-17T08:36:21.748Z,4.33
2019-01-17T08:39:09.814Z,4.60
2019-01-17T08:42:17.864Z,5.70
2019-01-17T08:45:05.759Z,3.37
2019-01-17T08:48:10.835Z,5.00
2019-01-17T08:51:01.859Z,4.37
2019-01-17T08:54:09.612Z,7.67
2019-01-17T08:57:14.158Z,6.47
2019-01-17T09:00:18.873Z,8.47
2019-01-17T09:03:23.634Z,10.27
2019-01-17T09:06:11.516Z,10.17
2019-01-17T09:09:16.329Z,11.43
2019-01-17T09:12:07.227Z,7.43
2019-01-17T09:15:11.812Z,7.03
2019-01-17T09:18:00.164Z,9.27
2019-01-17T09:21:05.161Z,6.80
2019-01-17T09:23:53.459Z,8.43
2019-01-17T09:26:58.390Z,6.73
2019-01-17T09:30:02.872Z,6.07
2019-01-17T09:32:50.763Z,6.03
2019-01-17T09:35:55.581Z,6.60
2019-01-17T09:38:43.747Z,11.37
2019-01-17T09:41:48.570Z,11.67
2019-01-17T09:44:36.294Z,10.20
2019-01-17T09:47:41.148Z,10.27
2019-01-17T09:50:29.106Z,9.50
2019-01-17T09:53:34.054Z,11.43
2019-01-17T09:56:25.229Z,11.43
2019-01-17T09:59:29.711Z,10.23
2019-01-17T10:02:18.502Z,12.33
2019-01-17T10:05:23.103Z,14.87
2019-01-17T10:08:11.589Z,12.30
2019-01-17T10:11:16.547Z,13.65
2019-01-17T10:14:04.275Z,15.68
2019-01-17T10:17:09.561Z,9.90
2019-01-17T10:19:57.806Z,11.33
2019-01-17T10:23:02.417Z,15.45
2019-01-17T10:26:07.601Z,60.10
2019-01-17T10:28:56.514Z,8.87
2019-01-17T10:32:01.086Z,9.23
2019-01-17T10:35:05.441Z,16.60
2019-01-17T10:38:10.111Z,13.05
2019-01-17T10:41:15.098Z,10.48
2019-01-17T10:44:20.007Z,14.25
2019-01-17T10:47:10.426Z,12.40
2019-01-17T10:50:15.627Z,14.75
2019-01-17T10:53:03.455Z,12.20
2019-01-17T10:56:08.200Z,10.13
2019-01-17T10:59:12.835Z,7.45
2019-01-17T11:02:01.128Z,9.28
2019-01-17T11:05:09.295Z,7.55
2019-01-17T11:08:13.743Z,8.63
2019-01-17T11:11:18.543Z,7.67
2019-01-17T11:14:06.604Z,8.63
2019-01-17T11:17:11.388Z,18.30
2019-01-17T11:20:16.489Z,9.95
2019-01-17T11:23:04.364Z,8.75
2019-01-17T11:26:08.939Z,8.13
2019-01-17T11:29:13.784Z,11.73
2019-01-17T11:32:01.702Z,7.45
2019-01-17T11:35:06.506Z,8.43
2019-01-17T11:38:11.575Z,6.92
2019-01-17T11:41:16.388Z,18.77
2019-01-17T11:44:21.162Z,9.83
2019-01-17T11:47:09.172Z,6.50
2019-01-17T11:50:13.814Z,13.78
2019-01-17T11:53:18.434Z,9.65
2019-01-17T11:56:23.247Z,10.35
2019-01-17T11:59:28.821Z,11.75
2019-01-17T12:02:39.004Z,10.95
2019-01-17T12:05:25.873Z,8.58
2019-01-17T12:08:30.584Z,8.85
2019-01-17T12:11:18.731Z,11.63
2019-01-17T12:14:24.176Z,8.18
2019-01-17T12:17:13.556Z,15.00
2019-01-17T12:20:18.143Z,7.50
2019-01-17T12:23:06.265Z,6.72
2019-01-17T12:26:11.223Z,6.75
2019-01-17T12:28:59.220Z,8.15
2019-01-17T12:32:03.892Z,14.13
2019-01-17T12:34:52.107Z,16.45
2019-01-17T12:37:56.828Z,10.88
2019-01-17T12:40:47.514Z,10.48
2019-01-17T12:43:52.337Z,10.60
2019-01-17T12:46:43.308Z,11.60
2019-01-17T12:49:47.766Z,10.78
2019-01-17T12:52:52.294Z,9.95
2019-01-17T12:55:40.293Z,20.20
2019-01-17T12:58:44.897Z,11.93
2019-01-17T13:01:33.249Z,11.85
2019-01-17T13:04:37.862Z,12.70
2019-01-17T13:07:25.591Z,19.90
2019-01-17T13:10:30.221Z,54.40
2019-01-17T13:13:18.206Z,11.53
2019-01-17T13:16:22.780Z,19.00
2019-01-17T13:19:10.793Z,10.25
2019-01-17T13:22:15.582Z,14.75
2019-01-17T13:25:04.150Z,9.50
2019-01-17T13:28:09.380Z,15.08
2019-01-17T13:30:57.390Z,7.83
2019-01-17T13:34:01.872Z,7.92
2019-01-17T13:36:49.928Z,12.53
2019-01-17T13:39:54.859Z,10.95
2019-01-17T13:42:43.241Z,13.48
2019-01-17T13:45:47.987Z,19.62
2019-01-17T13:48:16.612Z,9.03
2019-01-17T13:50:48.092Z,9.68
2019-01-17T13:53:16.719Z,11.22
2019-01-17T13:55:45.313Z,11.60
2019-01-17T13:58:16.936Z,9.63
2019-01-17T14:00:45.509Z,12.78
2019-01-17T14:03:14.122Z,10.43
2019-01-17T14:05:42.915Z,10.50
2019-01-17T14:08:11.577Z,9.43
2019-01-17T14:10:43.227Z,8.58
2019-01-17T14:13:11.970Z,10.90
2019-01-17T14:15:40.651Z,7.45
2019-01-17T14:18:14.659Z,7.35
2019-01-17T14:20:43.335Z,9.08
2019-01-17T14:23:12.066Z,9.30
2019-01-17T14:25:40.776Z,17.30
2019-01-17T14:28:12.428Z,11.93
2019-01-17T14:30:41.562Z,10.98
2019-01-17T14:33:10.235Z,19.95
2019-01-17T14:35:38.871Z,33.30
2019-01-17T14:38:13.509Z,27.17
2019-01-17T14:40:42.139Z,57.30
2019-01-17T14:43:10.747Z,42.23
2019-01-17T14:45:39.378Z,59.90
2019-01-17T14:48:08.060Z,63.73
2019-01-17T14:50:36.704Z,52.17
2019-01-17T14:53:05.939Z,47.63
2019-01-17T14:55:34.574Z,47.63
2019-01-17T14:58:03.257Z,36.43
2019-01-17T15:00:33.426Z,85.20
2019-01-17T15:03:02.552Z,66.17
2019-01-17T15:05:31.285Z,108.13
2019-01-17T15:07:59.874Z,104.43
2019-01-17T15:10:31.644Z,175.13
2019-01-17T15:13:00.275Z,180.57
2019-01-17T15:15:29.667Z,159.70
2019-01-17T15:17:58.564Z,252.47
2019-01-17T15:20:27.204Z,215.90
2019-01-17T15:22:55.875Z,74.27
2019-01-17T15:25:24.602Z,334.97
2019-01-17T15:27:53.910Z,218.03
2019-01-17T15:30:24.939Z,131.90
2019-01-17T15:32:53.768Z,77.97
2019-01-17T15:35:25.395Z,84.87
2019-01-17T15:37:54.024Z,91.33
2019-01-17T15:40:30.273Z,106.07
2019-01-17T15:42:58.830Z,162.37
2019-01-17T15:45:27.526Z,175.87
2019-01-17T15:47:59.226Z,83.00
2019-01-17T15:50:27.893Z,79.37
2019-01-17T15:52:56.523Z,85.60
2019-01-17T15:55:28.373Z,90.73
2019-01-17T15:57:56.929Z,68.27
2019-01-17T16:00:27.881Z,64.90
2019-01-17T16:02:56.876Z,83.37
2019-01-17T16:05:25.606Z,136.87
2019-01-17T16:07:56.938Z,155.30
2019-01-17T16:10:28.290Z,125.17
2019-01-17T16:12:56.874Z,101.63
2019-01-17T16:15:29.099Z,84.73
2019-01-17T16:17:57.862Z,69.30
2019-01-17T16:20:26.488Z,75.93
2019-01-17T16:22:55.250Z,80.07
2019-01-17T16:25:23.939Z,70.90
2019-01-17T16:27:55.334Z,81.37
2019-01-17T16:30:33.815Z,108.47
2019-01-17T16:33:08.245Z,117.10
2019-01-17T16:35:39.934Z,108.63
2019-01-17T16:38:08.568Z,100.67
2019-01-17T16:40:37.314Z,89.77
2019-01-17T16:43:05.984Z,83.63
2019-01-17T16:45:35.544Z,78.90
2019-01-17T16:48:07.570Z,93.30
2019-01-17T16:50:38.974Z,82.53
2019-01-17T16:53:07.594Z,67.07
2019-01-17T16:55:36.269Z,75.23
2019-01-17T16:58:07.971Z,80.57
2019-01-17T17:00:38.995Z,74.97
2019-01-17T17:03:10.748Z,59.73
2019-01-17T17:05:42.432Z,46.40
2019-01-17T17:08:12.285Z,42.70
2019-01-17T17:10:41.130Z,43.67
2019-01-17T17:13:09.771Z,38.83
2019-01-17T17:15:39.092Z,47.37
2019-01-17T17:18:08.648Z,60.40
2019-01-17T17:20:37.272Z,98.00
2019-01-17T17:23:05.937Z,119.17
2019-01-17T17:25:34.629Z,145.03
2019-01-17T17:28:07.578Z,136.70
2019-01-17T17:30:39.003Z,129.27
2019-01-17T17:33:07.665Z,139.73
2019-01-17T17:35:36.365Z,93.87
2019-01-17T17:38:05.429Z,70.30
2019-01-17T17:40:34.041Z,85.53
2019-01-17T17:43:09.938Z,97.20
2019-01-17T17:45:38.503Z,100.07
2019-01-17T17:48:07.182Z,113.57
2019-01-17T17:50:35.660Z,105.80
2019-01-17T17:53:04.323Z,100.47
2019-01-17T17:55:36.878Z,91.07
2019-01-17T17:58:05.602Z,85.30
2019-01-17T18:00:35.918Z,116.97
2019-01-17T18:03:04.536Z,108.17
2019-01-17T18:05:33.278Z,101.67
2019-01-17T18:08:01.940Z,121.83
2019-01-17T18:10:30.570Z,365.73
2019-01-17T18:12:59.279Z,365.93
2019-01-17T18:15:30.732Z,310.07
2019-01-17T18:17:59.458Z,269.83
2019-01-17T18:20:28.137Z,121.20
2019-01-17T18:22:57.168Z,99.23
2019-01-17T18:25:25.844Z,82.87
2019-01-17T18:27:54.486Z,93.50
2019-01-17T18:30:32.441Z,97.37
2019-01-17T18:33:01.074Z,104.67
2019-01-17T18:35:29.799Z,87.87
2019-01-17T18:38:02.556Z,109.67
2019-01-17T18:40:37.632Z,114.13
2019-01-17T18:43:11.692Z,109.80
2019-01-17T18:45:43.139Z,117.67
2019-01-17T18:48:12.455Z,119.73
2019-01-17T18:50:41.246Z,121.57
2019-01-17T18:53:09.951Z,144.13
2019-01-17T18:55:42.115Z,171.23
2019-01-17T18:58:15.497Z,164.60
2019-01-17T19:00:42.148Z,174.13
2019-01-17T19:03:11.842Z,188.00
2019-01-17T19:05:40.602Z,186.00
2019-01-17T19:08:10.403Z,202.50
2019-01-17T19:10:39.169Z,218.50
2019-01-17T19:13:09.466Z,209.93
2019-01-17T19:15:38.170Z,218.97
2019-01-17T19:18:11.302Z,205.40
2019-01-17T19:20:40.729Z,204.80
2019-01-17T19:23:14.027Z,215.00
2019-01-17T19:25:51.717Z,196.80
2019-01-17T19:28:28.450Z,208.73
2019-01-17T19:30:57.188Z,193.10
2019-01-17T19:33:27.904Z,191.60
2019-01-17T19:35:56.575Z,196.57
2019-01-17T19:38:25.924Z,194.00
2019-01-17T19:40:54.631Z,183.57
2019-01-17T19:43:25.929Z,188.70
2019-01-17T19:45:58.692Z,191.57
2019-01-17T19:48:29.163Z,192.20
2019-01-17T19:50:57.921Z,195.33
2019-01-17T19:53:28.130Z,180.70
2019-01-17T19:55:59.639Z,167.67
2019-01-17T19:58:30.889Z,151.17
2019-01-17T20:00:59.691Z,150.77
2019-01-17T20:03:28.389Z,141.83
2019-01-17T20:06:01.306Z,138.23
2019-01-17T20:08:30.053Z,131.50
2019-01-17T20:10:58.778Z,124.43
2019-01-17T20:13:31.450Z,118.50
2019-01-17T20:16:00.252Z,131.37
2019-01-17T20:18:29.019Z,120.57
2019-01-17T20:20:57.784Z,126.03
2019-01-17T20:23:26.493Z,137.87
2019-01-17T20:25:55.228Z,142.53
2019-01-17T20:28:23.948Z,146.27
2019-01-17T20:30:52.808Z,140.50
2019-01-17T20:33:24.235Z,127.23
2019-01-17T20:35:56.322Z,137.77
2019-01-17T20:38:28.097Z,140.47
2019-01-17T20:41:00.802Z,139.20
2019-01-17T20:43:35.644Z,117.77
2019-01-17T20:46:04.451Z,129.77
2019-01-17T20:48:34.636Z,128.17
2019-01-17T20:51:03.378Z,113.40
2019-01-17T20:53:32.088Z,103.63
2019-01-17T20:56:02.173Z,96.40
2019-01-17T20:58:32.977Z,89.40
2019-01-17T21:01:18.176Z,88.80
2019-01-17T21:03:48.210Z,96.60
2019-01-17T21:06:16.837Z,84.33
2019-01-17T21:08:51.794Z,82.90
2019-01-17T21:11:27.790Z,92.93
2019-01-17T21:13:56.471Z,98.37
2019-01-17T21:16:25.104Z,77.87
2019-01-17T21:18:53.810Z,73.27
2019-01-17T21:21:22.414Z,70.93
2019-01-17T21:23:50.963Z,76.93
2019-01-17T21:26:19.524Z,62.43
2019-01-17T21:28:49.201Z,69.13
2019-01-17T21:31:18.640Z,64.90
2019-01-17T21:33:50.019Z,69.60
2019-01-17T21:36:18.641Z,79.53
2019-01-17T21:38:47.316Z,72.73
2019-01-17T21:41:15.878Z,80.60
2019-01-17T21:43:44.476Z,70.80
2019-01-17T21:46:13.107Z,74.23
2019-01-17T21:48:41.694Z,77.20
2019-01-17T21:51:10.376Z,86.20
2019-01-17T21:53:45.753Z,83.47
2019-01-17T21:56:14.529Z,89.40
2019-01-17T21:58:43.151Z,88.07
2019-01-17T22:01:11.802Z,75.93
2019-01-17T22:03:53.887Z,73.50
2019-01-17T22:06:22.617Z,68.00
2019-01-17T22:08:51.230Z,76.23
2019-01-17T22:11:21.346Z,74.53
2019-01-17T22:13:50.016Z,71.67
2019-01-17T22:16:18.664Z,80.23
2019-01-17T22:18:47.326Z,82.87
2019-01-17T22:21:15.953Z,75.27
2019-01-17T22:23:44.652Z,77.77
2019-01-17T22:26:13.276Z,83.77
2019-01-17T22:28:41.926Z,79.60
2019-01-17T22:31:10.567Z,80.03
2019-01-17T22:33:39.124Z,89.40
2019-01-17T22:36:07.791Z,71.53
2019-01-17T22:38:36.465Z,71.37
2019-01-17T22:41:05.319Z,73.30
2019-01-17T22:43:33.953Z,71.63
2019-01-17T22:46:02.503Z,61.93
2019-01-17T22:48:42.908Z,59.70
2019-01-17T22:51:17.471Z,66.27
2019-01-17T22:53:46.986Z,58.50
2019-01-17T22:56:15.760Z,56.67
2019-01-17T22:58:44.404Z,58.47
2019-01-17T23:01:22.136Z,62.33
2019-01-17T23:03:50.832Z,66.73
2019-01-17T23:06:19.486Z,68.63
2019-01-17T23:08:54.264Z,70.40
2019-01-17T23:11:29.374Z,66.80
2019-01-17T23:13:53.314Z,70.07
2019-01-17T23:16:25.442Z,63.37
2019-01-17T23:18:54.130Z,65.80
2019-01-17T23:21:22.752Z,69.23
2019-01-17T23:23:51.419Z,69.67
2019-01-17T23:26:23.954Z,66.77
2019-01-17T23:28:52.650Z,68.53
2019-01-17T23:31:21.297Z,68.10
2019-01-17T23:33:56.045Z,73.73
2019-01-17T23:36:24.779Z,76.40
2019-01-17T23:39:01.808Z,80.73
2019-01-17T23:41:30.447Z,90.10
2019-01-17T23:43:59.239Z,86.23
2019-01-17T23:46:35.299Z,90.70
2019-01-17T23:49:18.100Z,85.30
2019-01-17T23:51:46.757Z,88.37
2019-01-17T23:54:22.976Z,82.70
2019-01-17T23:56:51.637Z,83.70
2019-01-17T23:59:22.715Z,72.13
